Time;durP1;ratioP1;P1;durP2;ratioP2;P2;SDS_P1;SDS_P2;PMS_P1;PMS_P2;Temp;Humidity;BMP_temperature;BMP_pressure;BME280_temperature;BME280_humidity;BME280_pressure;Samples;Min_cycle;Max_cycle;Signal;HPM_P1;HPM_P2
2021/05/09 00:00:12;;;;;;;32.08;15.32;;;3.90;81.80;;;;;;5051197;28;20021;-76
2021/05/09 00:02:38;;;;;;;25.23;13.80;;;3.90;82.20;;;;;;5051302;28;20017;-76
2021/05/09 00:05:05;;;;;;;27.73;15.52;;;3.90;82.70;;;;;;5049961;28;20040;-76
2021/05/09 00:07:31;;;;;;;29.73;15.70;;;3.90;82.00;;;;;;5050654;28;20413;-77
2021/05/09 00:09:57;;;;;;;32.65;16.10;;;3.90;82.20;;;;;;5050592;28;20033;-77
2021/05/09 00:12:23;;;;;;;26.77;14.18;;;3.90;82.40;;;;;;5050702;28;20029;-77
2021/05/09 00:14:49;;;;;;;25.67;16.67;;;3.80;82.50;;;;;;5051174;28;20028;-76
2021/05/09 00:17:14;;;;;;;27.33;16.05;;;3.80;83.10;;;;;;5050794;28;20479;-76
2021/05/09 00:19:40;;;;;;;25.92;13.93;;;3.80;82.80;;;;;;5049987;28;20124;-76
2021/05/09 00:22:05;;;;;;;28.17;14.23;;;3.80;83.00;;;;;;5050291;28;20475;-77
2021/05/09 00:24:31;;;;;;;26.60;15.10;;;3.70;83.20;;;;;;5050459;28;20021;-76
2021/05/09 00:26:57;;;;;;;27.92;14.18;;;3.80;82.60;;;;;;5050971;28;20037;-76
2021/05/09 00:29:22;;;;;;;24.58;15.13;;;3.70;82.40;;;;;;5051366;28;20033;-76
2021/05/09 00:31:48;;;;;;;25.88;14.93;;;3.80;81.90;;;;;;5053313;28;20032;-77
2021/05/09 00:34:13;;;;;;;29.10;14.10;;;3.80;81.40;;;;;;5054504;28;20052;-77
2021/05/09 00:36:39;;;;;;;24.67;14.98;;;3.80;80.70;;;;;;5054615;28;20033;-77
2021/05/09 00:39:05;;;;;;;31.42;16.23;;;3.90;80.60;;;;;;5054332;28;20461;-77
2021/05/09 00:41:31;;;;;;;28.42;15.48;;;3.80;80.40;;;;;;5054144;28;20025;-76
2021/05/09 00:43:56;;;;;;;20.92;13.68;;;3.80;81.00;;;;;;5052682;28;20052;-77
2021/05/09 00:46:22;;;;;;;22.77;13.25;;;3.80;80.80;;;;;;5053075;28;20036;-76
2021/05/09 00:48:47;;;;;;;29.83;15.35;;;3.80;81.10;;;;;;5054483;28;20163;-76
2021/05/09 00:51:13;;;;;;;24.85;14.43;;;3.70;81.80;;;;;;5054080;28;20025;-77
2021/05/09 00:53:42;;;;;;;26.20;14.57;;;3.60;82.70;;;;;;5052694;28;20025;-77
2021/05/09 00:56:11;;;;;;;28.90;14.07;;;3.60;82.50;;;;;;5052746;28;20020;-77
2021/05/09 00:58:38;;;;;;;37.40;19.88;;;3.60;82.50;;;;;;5053533;28;20493;-75
2021/05/09 01:01:03;;;;;;;30.10;15.85;;;3.50;83.10;;;;;;5053959;28;20098;-75
2021/05/09 01:03:31;;;;;;;24.27;14.43;;;3.50;82.70;;;;;;5052592;28;20059;-75
2021/05/09 01:05:59;;;;;;;24.67;15.25;;;3.50;82.80;;;;;;5054547;28;20149;-75
2021/05/09 01:08:26;;;;;;;24.92;14.43;;;3.60;82.70;;;;;;5053179;28;20110;-74
2021/05/09 01:10:52;;;;;;;29.10;14.68;;;3.50;82.80;;;;;;5053644;28;20021;-75
2021/05/09 01:13:18;;;;;;;25.27;14.27;;;3.50;83.30;;;;;;5052045;28;20419;-74
2021/05/09 01:15:43;;;;;;;27.33;13.25;;;3.50;83.40;;;;;;5053714;28;20029;-74
2021/05/09 01:18:09;;;;;;;22.20;13.30;;;3.40;82.70;;;;;;5051775;28;20543;-74
2021/05/09 01:20:36;;;;;;;29.05;15.18;;;3.40;82.30;;;;;;5054346;28;20027;-74
2021/05/09 01:23:02;;;;;;;29.30;13.32;;;3.40;82.20;;;;;;5052115;28;20078;-74
2021/05/09 01:25:28;;;;;;;22.63;13.32;;;3.40;82.90;;;;;;5053163;28;20359;-74
2021/05/09 01:27:55;;;;;;;23.33;13.88;;;3.30;83.00;;;;;;5051513;28;20044;-74
2021/05/09 01:30:21;;;;;;;24.05;12.68;;;3.30;83.10;;;;;;5053056;28;20021;-74
2021/05/09 01:32:47;;;;;;;19.75;13.60;;;3.30;83.30;;;;;;5052941;28;20108;-75
2021/05/09 01:35:13;;;;;;;22.58;12.98;;;3.20;85.10;;;;;;5053409;28;20055;-74
2021/05/09 01:37:39;;;;;;;20.00;12.60;;;3.20;85.90;;;;;;5052860;28;20087;-74
2021/05/09 01:40:07;;;;;;;22.70;13.77;;;3.20;85.30;;;;;;5053008;28;20029;-74
2021/05/09 01:42:32;;;;;;;23.63;12.23;;;3.20;84.30;;;;;;5052915;28;20425;-74
2021/05/09 01:44:58;;;;;;;15.85;11.70;;;3.20;83.50;;;;;;5052663;28;20025;-75
2021/05/09 01:47:25;;;;;;;20.45;13.48;;;3.20;84.20;;;;;;5053168;28;20158;-74
2021/05/09 01:49:51;;;;;;;19.30;11.93;;;3.20;84.40;;;;;;5049746;28;20378;-75
2021/05/09 01:52:17;;;;;;;21.73;13.02;;;3.20;83.70;;;;;;5051830;28;20123;-74
2021/05/09 01:54:44;;;;;;;19.55;12.80;;;3.20;84.30;;;;;;5053488;28;20066;-74
2021/05/09 01:57:10;;;;;;;26.00;13.07;;;3.20;86.00;;;;;;5050635;28;20513;-74
2021/05/09 01:59:35;;;;;;;22.08;12.27;;;3.20;85.90;;;;;;5051130;28;20016;-74
2021/05/09 02:02:01;;;;;;;21.55;12.45;;;3.20;84.80;;;;;;5050048;28;20029;-74
2021/05/09 02:04:27;;;;;;;23.08;13.73;;;3.20;85.60;;;;;;5050778;28;20017;-74
2021/05/09 02:06:52;;;;;;;25.73;12.38;;;3.30;84.00;;;;;;5050635;28;20037;-74
2021/05/09 02:09:18;;;;;;;18.20;12.10;;;3.30;84.40;;;;;;5050483;28;20502;-74
2021/05/09 02:11:44;;;;;;;17.58;12.02;;;3.40;85.40;;;;;;5050567;28;20025;-74
2021/05/09 02:14:09;;;;;;;18.70;11.77;;;3.40;85.00;;;;;;5050953;28;20104;-74
2021/05/09 02:16:35;;;;;;;23.02;11.90;;;3.50;83.30;;;;;;5049044;28;20466;-74
2021/05/09 02:19:01;;;;;;;16.77;11.55;;;3.60;82.70;;;;;;5049594;28;20013;-74
2021/05/09 02:21:27;;;;;;;18.77;11.65;;;3.60;83.00;;;;;;5050370;28;20059;-75
2021/05/09 02:23:53;;;;;;;21.95;12.10;;;3.70;82.30;;;;;;5060001;28;20024;-75
2021/05/09 02:26:19;;;;;;;17.30;10.75;;;3.70;81.40;;;;;;5069257;28;20101;-74
2021/05/09 02:28:44;;;;;;;18.52;11.43;;;3.80;81.80;;;;;;5070182;28;20020;-74
2021/05/09 02:31:10;;;;;;;18.23;12.10;;;3.80;81.60;;;;;;5070139;28;20020;-74
2021/05/09 02:33:35;;;;;;;15.88;10.75;;;3.90;81.50;;;;;;5071576;28;20067;-74
2021/05/09 02:36:01;;;;;;;16.60;10.82;;;4.00;80.80;;;;;;5072083;28;20021;-74
2021/05/09 02:38:27;;;;;;;19.75;11.50;;;4.00;80.60;;;;;;5071822;28;20051;-75
2021/05/09 02:40:53;;;;;;;18.65;11.82;;;4.00;79.80;;;;;;5070581;28;20025;-74
2021/05/09 02:43:19;;;;;;;17.35;12.70;;;4.10;82.20;;;;;;5070954;28;20036;-74
2021/05/09 02:45:44;;;;;;;28.35;16.23;;;4.10;81.20;;;;;;5071653;28;20480;-75
2021/05/09 02:48:11;;;;;;;18.60;12.75;;;4.20;81.60;;;;;;5071882;28;20055;-74
2021/05/09 02:50:37;;;;;;;20.98;12.07;;;4.20;79.60;;;;;;5071363;28;20509;-74
2021/05/09 02:53:03;;;;;;;21.25;12.68;;;4.20;78.70;;;;;;5051685;28;20760;-74
2021/05/09 02:55:29;;;;;;;18.92;10.98;;;4.30;78.20;;;;;;5050154;28;20070;-74
2021/05/09 02:57:54;;;;;;;18.48;10.52;;;4.40;78.30;;;;;;5052181;28;20047;-75
2021/05/09 03:00:20;;;;;;;14.93;10.65;;;4.40;77.30;;;;;;5051433;28;20036;-74
2021/05/09 03:02:46;;;;;;;20.38;11.07;;;4.40;76.50;;;;;;5050681;28;20029;-74
2021/05/09 03:05:12;;;;;;;19.67;10.30;;;4.50;75.70;;;;;;5049793;28;20146;-74
2021/05/09 03:07:37;;;;;;;18.58;10.50;;;4.50;75.40;;;;;;5052136;28;20442;-74
2021/05/09 03:10:04;;;;;;;18.67;10.63;;;4.50;75.80;;;;;;5052016;28;20075;-74
2021/05/09 03:12:31;;;;;;;16.88;9.57;;;4.50;77.10;;;;;;5055586;28;20024;-75
2021/05/09 03:14:56;;;;;;;15.10;10.43;;;4.60;75.10;;;;;;5061984;28;20025;-74
2021/05/09 03:17:22;;;;;;;16.17;9.55;;;4.60;74.30;;;;;;5059215;28;20508;-74
2021/05/09 03:19:48;;;;;;;15.52;9.70;;;4.70;75.10;;;;;;5069228;28;20029;-74
2021/05/09 03:22:13;;;;;;;13.30;9.70;;;4.80;73.90;;;;;;5071651;28;20024;-74
2021/05/09 03:24:40;;;;;;;18.63;10.65;;;4.80;74.70;;;;;;5071482;28;20078;-74
2021/05/09 03:27:05;;;;;;;14.57;9.15;;;4.90;73.30;;;;;;5067816;28;20028;-74
2021/05/09 03:29:31;;;;;;;16.92;8.65;;;5.00;73.40;;;;;;5066660;28;20029;-74
2021/05/09 03:31:57;;;;;;;14.88;9.57;;;5.00;73.30;;;;;;5068015;28;20040;-75
2021/05/09 03:34:22;;;;;;;12.93;8.85;;;5.10;72.70;;;;;;5059310;28;20095;-75
2021/05/09 03:36:48;;;;;;;18.20;9.63;;;5.10;73.00;;;;;;5052610;28;20493;-74
2021/05/09 03:39:14;;;;;;;14.63;9.65;;;5.20;72.60;;;;;;5048028;28;20071;-74
2021/05/09 03:41:39;;;;;;;12.50;9.15;;;5.20;72.50;;;;;;5047764;28;20425;-74
2021/05/09 03:44:06;;;;;;;18.92;10.07;;;5.20;70.40;;;;;;5047139;28;20055;-74
2021/05/09 03:46:31;;;;;;;14.88;8.98;;;5.30;71.00;;;;;;5049524;28;20478;-74
2021/05/09 03:48:57;;;;;;;16.85;9.23;;;5.50;71.00;;;;;;5049284;28;20082;-74
2021/05/09 03:51:23;;;;;;;14.20;9.10;;;5.60;70.60;;;;;;5049533;28;20025;-74
2021/05/09 03:53:49;;;;;;;13.85;8.95;;;5.60;69.30;;;;;;5048642;28;20425;-74
2021/05/09 03:56:14;;;;;;;18.30;9.90;;;5.70;70.60;;;;;;5051545;28;20021;-74
2021/05/09 03:58:40;;;;;;;15.82;9.25;;;5.70;69.70;;;;;;5049409;28;20052;-74
2021/05/09 04:01:06;;;;;;;17.33;8.73;;;5.80;69.60;;;;;;5050937;28;20143;-74
2021/05/09 04:03:32;;;;;;;14.15;8.60;;;5.80;69.40;;;;;;5050784;28;20021;-74
2021/05/09 04:05:58;;;;;;;12.88;8.20;;;5.90;69.00;;;;;;5052695;28;20048;-74
2021/05/09 04:08:27;;;;;;;13.52;7.72;;;5.90;68.30;;;;;;5055042;28;20420;-74
2021/05/09 04:10:54;;;;;;;15.55;9.02;;;5.90;68.80;;;;;;5055021;28;20118;-74
2021/05/09 04:13:20;;;;;;;11.13;7.95;;;6.00;68.40;;;;;;5054980;28;20036;-74
2021/05/09 04:15:46;;;;;;;12.15;8.20;;;6.00;68.50;;;;;;5054515;28;20470;-74
2021/05/09 04:18:13;;;;;;;9.90;7.72;;;6.10;69.90;;;;;;5054712;28;20032;-75
2021/05/09 04:20:39;;;;;;;10.43;7.20;;;6.10;69.30;;;;;;5054727;28;20028;-75
2021/05/09 04:23:13;;;;;;;10.15;7.15;;;6.20;69.40;;;;;;5058945;28;20039;-75
2021/05/09 04:25:41;;;;;;;9.77;6.50;;;6.30;69.10;;;;;;5058004;28;20462;-74
2021/05/09 04:28:06;;;;;;;11.45;7.07;;;6.30;68.50;;;;;;5061988;28;20487;-75
2021/05/09 04:30:33;;;;;;;13.07;7.30;;;6.40;68.50;;;;;;5062194;28;20023;-74
2021/05/09 04:33:00;;;;;;;11.77;7.32;;;6.40;68.00;;;;;;5060671;28;20021;-74
2021/05/09 04:35:26;;;;;;;12.77;8.52;;;6.60;69.00;;;;;;5059808;28;20048;-74
2021/05/09 04:37:52;;;;;;;12.75;7.80;;;6.70;69.30;;;;;;5062009;28;20101;-75
2021/05/09 04:40:18;;;;;;;13.82;7.45;;;6.90;69.10;;;;;;5058914;28;20079;-75
2021/05/09 04:42:44;;;;;;;11.23;6.57;;;7.00;69.20;;;;;;5060022;28;20095;-74
2021/05/09 04:45:10;;;;;;;9.60;6.47;;;7.10;69.20;;;;;;5061561;28;20016;-74
2021/05/09 04:47:35;;;;;;;10.55;7.55;;;7.30;68.50;;;;;;5059825;28;20086;-74
2021/05/09 04:50:02;;;;;;;9.00;5.50;;;7.40;67.50;;;;;;5060332;28;20024;-74
2021/05/09 04:52:28;;;;;;;10.48;5.93;;;7.50;66.60;;;;;;5058938;28;20199;-74
2021/05/09 04:54:53;;;;;;;10.23;5.10;;;7.70;63.40;;;;;;5056351;28;20127;-74
2021/05/09 04:57:19;;;;;;;7.50;5.35;;;7.80;62.90;;;;;;5058579;28;20373;-74
2021/05/09 04:59:44;;;;;;;8.02;5.07;;;7.90;61.50;;;;;;5054722;28;20020;-75
2021/05/09 05:02:10;;;;;;;8.00;5.13;;;7.90;60.50;;;;;;5058153;28;20123;-74
2021/05/09 05:04:35;;;;;;;8.10;5.45;;;8.00;59.60;;;;;;5056724;28;20036;-74
2021/05/09 05:07:01;;;;;;;10.15;5.50;;;8.10;59.30;;;;;;5059824;28;20059;-75
2021/05/09 05:09:27;;;;;;;6.68;4.82;;;8.10;60.30;;;;;;5068994;28;20048;-75
2021/05/09 05:11:53;;;;;;;9.35;4.57;;;8.20;59.90;;;;;;5070812;28;20502;-75
2021/05/09 05:14:19;;;;;;;8.45;4.55;;;8.30;59.70;;;;;;5070930;28;20520;-75
2021/05/09 05:16:44;;;;;;;7.45;5.15;;;8.40;59.30;;;;;;5059934;28;20020;-75
2021/05/09 05:19:10;;;;;;;8.05;4.65;;;8.40;59.40;;;;;;5059591;28;20063;-75
2021/05/09 05:21:35;;;;;;;6.50;4.22;;;8.50;58.60;;;;;;5061326;28;20024;-74
2021/05/09 05:24:01;;;;;;;9.90;5.00;;;8.60;58.60;;;;;;5058496;28;20028;-74
2021/05/09 05:26:26;;;;;;;6.72;5.13;;;8.70;59.00;;;;;;5064903;28;20123;-75
2021/05/09 05:28:52;;;;;;;8.65;4.95;;;8.80;58.70;;;;;;5059315;28;20029;-74
2021/05/09 05:31:18;;;;;;;8.95;5.55;;;8.90;59.00;;;;;;5064852;28;20520;-75
2021/05/09 05:33:43;;;;;;;8.02;5.28;;;9.00;58.00;;;;;;5070361;28;20067;-75
2021/05/09 05:36:09;;;;;;;6.30;4.65;;;9.10;58.10;;;;;;5067364;28;20394;-74
2021/05/09 05:38:35;;;;;;;6.82;5.28;;;9.20;58.30;;;;;;5069959;28;20028;-74
2021/05/09 05:41:01;;;;;;;8.35;5.05;;;9.30;58.50;;;;;;5069861;28;20024;-74
2021/05/09 05:43:28;;;;;;;8.27;4.88;;;9.50;59.20;;;;;;5056126;28;20032;-75
2021/05/09 05:45:56;;;;;;;7.40;4.63;;;9.60;58.40;;;;;;5049893;28;20036;-75
2021/05/09 05:48:22;;;;;;;5.38;4.35;;;9.70;57.90;;;;;;5049736;28;20037;-74
2021/05/09 05:50:49;;;;;;;8.90;4.65;;;9.70;57.50;;;;;;5048571;28;20036;-75
2021/05/09 05:53:23;;;;;;;7.60;5.25;;;9.80;57.30;;;;;;5048085;28;20033;-75
2021/05/09 05:55:50;;;;;;;8.32;4.60;;;9.90;57.60;;;;;;5049477;28;20025;-75
2021/05/09 05:58:18;;;;;;;7.97;4.93;;;10.00;57.40;;;;;;5049531;28;20052;-74
2021/05/09 06:00:45;;;;;;;7.88;4.63;;;10.10;57.30;;;;;;5050590;28;20501;-75
2021/05/09 06:03:11;;;;;;;5.93;4.45;;;10.30;56.80;;;;;;5050516;28;20033;-75
2021/05/09 06:05:36;;;;;;;4.90;3.70;;;10.50;57.00;;;;;;5048323;28;20044;-75
2021/05/09 06:08:02;;;;;;;5.78;4.30;;;10.70;57.60;;;;;;5050043;28;20374;-75
2021/05/09 06:10:28;;;;;;;5.40;3.45;;;11.10;56.00;;;;;;5048936;28;20048;-74
2021/05/09 06:12:54;;;;;;;6.72;4.65;;;11.30;54.50;;;;;;5048371;28;20482;-75
2021/05/09 06:15:20;;;;;;;10.35;5.68;;;11.60;53.40;;;;;;5050314;28;20028;-75
2021/05/09 06:17:46;;;;;;;5.65;4.10;;;11.70;52.90;;;;;;5050245;28;20029;-75
2021/05/09 06:20:13;;;;;;;22.92;11.25;;;11.70;51.30;;;;;;5049470;28;20095;-75
2021/05/09 06:22:38;;;;;;;11.70;7.05;;;11.80;51.40;;;;;;5050158;28;20098;-74
2021/05/09 06:25:05;;;;;;;5.22;3.72;;;11.80;51.70;;;;;;5049886;28;20484;-75
2021/05/09 06:27:31;;;;;;;5.85;3.88;;;11.90;51.70;;;;;;5048658;28;20066;-75
2021/05/09 06:29:57;;;;;;;4.70;2.92;;;11.90;50.70;;;;;;5048414;28;20539;-75
2021/05/09 06:32:22;;;;;;;4.95;3.53;;;12.00;51.10;;;;;;5049965;28;20032;-74
2021/05/09 06:34:48;;;;;;;5.03;3.13;;;12.10;50.90;;;;;;5055675;28;20366;-75
2021/05/09 06:37:14;;;;;;;6.47;4.00;;;12.30;51.00;;;;;;5060465;28;20533;-75
2021/05/09 06:39:40;;;;;;;10.63;5.45;;;12.50;50.70;;;;;;5058469;28;20066;-75
2021/05/09 06:42:06;;;;;;;6.07;3.60;;;12.70;50.20;;;;;;5058399;28;20024;-75
2021/05/09 06:44:36;;;;;;;6.13;2.90;;;12.80;49.60;;;;;;5058805;28;20158;-75
2021/05/09 06:47:02;;;;;;;3.83;2.83;;;13.10;49.80;;;;;;5059004;28;20037;-74
2021/05/09 06:49:29;;;;;;;4.25;2.60;;;13.30;48.60;;;;;;5058336;28;20511;-75
2021/05/09 06:51:56;;;;;;;4.38;2.47;;;13.50;47.30;;;;;;5060225;28;20020;-75
2021/05/09 06:54:22;;;;;;;3.67;2.83;;;13.70;47.40;;;;;;5059104;28;20036;-74
2021/05/09 06:56:49;;;;;;;3.30;2.95;;;13.80;46.50;;;;;;5058181;28;20090;-75
2021/05/09 06:59:16;;;;;;;3.38;2.53;;;13.90;46.00;;;;;;5058624;28;20021;-75
2021/05/09 07:01:42;;;;;;;2.50;1.75;;;14.10;46.40;;;;;;5057226;28;20039;-75
2021/05/09 07:04:08;;;;;;;3.00;2.40;;;14.20;46.10;;;;;;5059795;28;20025;-75
2021/05/09 07:06:34;;;;;;;2.58;2.38;;;14.20;45.70;;;;;;5057417;28;20048;-75
2021/05/09 07:09:01;;;;;;;2.17;1.80;;;14.40;45.40;;;;;;5057868;28;20538;-75
2021/05/09 07:11:27;;;;;;;3.00;2.20;;;14.60;45.80;;;;;;5057244;28;20116;-74
2021/05/09 07:13:53;;;;;;;4.65;3.28;;;14.60;44.70;;;;;;5057647;28;20028;-75
2021/05/09 07:16:19;;;;;;;2.05;1.85;;;14.70;44.30;;;;;;5058849;28;20031;-75
2021/05/09 07:18:45;;;;;;;1.80;1.70;;;14.70;44.00;;;;;;5056848;28;20568;-75
2021/05/09 07:21:17;;;;;;;2.38;1.80;;;14.90;44.40;;;;;;5059533;28;20099;-75
2021/05/09 07:23:47;;;;;;;2.90;2.17;;;15.00;43.70;;;;;;5061017;28;20016;-76
2021/05/09 07:26:13;;;;;;;2.85;1.70;;;15.10;44.40;;;;;;5059539;28;20353;-76
2021/05/09 07:28:40;;;;;;;3.63;1.73;;;15.30;43.90;;;;;;5062266;28;20013;-76
2021/05/09 07:31:05;;;;;;;1.70;1.60;;;15.40;43.10;;;;;;5060133;28;20013;-75
2021/05/09 07:33:31;;;;;;;3.33;1.77;;;15.40;42.70;;;;;;5060389;28;20032;-76
2021/05/09 07:35:57;;;;;;;3.45;1.70;;;15.50;42.00;;;;;;5060908;28;20573;-75
2021/05/09 07:38:22;;;;;;;4.75;1.88;;;15.70;43.10;;;;;;5055876;28;20171;-76
2021/05/09 07:40:48;;;;;;;3.63;1.75;;;15.80;42.10;;;;;;5062160;28;20031;-75
2021/05/09 07:43:15;;;;;;;4.43;1.63;;;15.80;41.90;;;;;;5061836;28;20036;-75
2021/05/09 07:45:41;;;;;;;2.13;1.60;;;15.80;41.80;;;;;;5060103;28;20087;-76
2021/05/09 07:48:09;;;;;;;3.45;1.63;;;15.90;40.80;;;;;;5061158;28;20017;-75
2021/05/09 07:50:35;;;;;;;1.88;1.30;;;16.10;41.80;;;;;;5063946;28;20029;-75
2021/05/09 07:53:02;;;;;;;2.00;1.80;;;16.20;40.60;;;;;;5060914;28;20029;-75
2021/05/09 07:55:28;;;;;;;4.25;1.80;;;16.40;41.40;;;;;;5058605;28;20542;-76
2021/05/09 07:57:54;;;;;;;1.77;1.45;;;16.40;40.20;;;;;;5063386;28;20485;-76
2021/05/09 08:00:20;;;;;;;2.97;1.58;;;16.60;40.10;;;;;;5063641;28;20040;-76
2021/05/09 08:02:48;;;;;;;1.73;1.63;;;16.80;40.40;;;;;;5064922;28;20103;-76
2021/05/09 08:05:15;;;;;;;2.92;1.77;;;16.80;39.30;;;;;;5061639;28;20025;-76
2021/05/09 08:07:53;;;;;;;1.95;1.50;;;16.90;39.60;;;;;;5064117;28;20028;-75
2021/05/09 08:10:20;;;;;;;2.33;2.00;;;17.00;39.60;;;;;;5063807;28;20055;-76
2021/05/09 08:12:46;;;;;;;2.65;1.70;;;17.00;39.80;;;;;;5060784;28;20052;-76
2021/05/09 08:15:13;;;;;;;4.75;1.85;;;17.00;39.40;;;;;;5062624;28;20470;-76
2021/05/09 08:17:38;;;;;;;2.10;1.77;;;17.20;39.90;;;;;;5063497;28;20351;-76
2021/05/09 08:20:06;;;;;;;2.70;2.13;;;17.20;40.00;;;;;;5063244;28;20028;-76
2021/05/09 08:22:32;;;;;;;4.35;2.05;;;17.30;39.60;;;;;;5063891;28;20020;-76
2021/05/09 08:24:57;;;;;;;2.33;2.08;;;17.40;40.00;;;;;;5072072;28;20040;-76
2021/05/09 08:27:23;;;;;;;1.77;1.38;;;17.50;39.20;;;;;;5075259;28;20040;-76
2021/05/09 08:29:49;;;;;;;2.03;1.70;;;17.70;39.70;;;;;;5075408;28;20355;-76
2021/05/09 08:32:14;;;;;;;5.25;2.20;;;17.70;39.20;;;;;;5073598;28;20036;-76
2021/05/09 08:34:40;;;;;;;2.15;1.88;;;17.70;38.90;;;;;;5071888;28;20044;-76
2021/05/09 08:37:06;;;;;;;2.53;1.80;;;17.80;38.70;;;;;;5071956;28;20456;-76
2021/05/09 08:39:32;;;;;;;6.70;1.73;;;17.90;38.90;;;;;;5065056;28;20104;-76
2021/05/09 08:41:57;;;;;;;3.70;2.05;;;17.90;39.20;;;;;;5064895;28;20029;-76
2021/05/09 08:44:23;;;;;;;2.83;1.95;;;17.70;38.10;;;;;;5073609;28;20024;-76
2021/05/09 08:46:49;;;;;;;5.22;3.70;;;17.60;38.40;;;;;;5073598;28;20480;-76
2021/05/09 08:49:16;;;;;;;4.50;2.17;;;17.80;38.40;;;;;;5074521;28;20090;-76
2021/05/09 08:51:43;;;;;;;5.50;1.95;;;17.80;38.50;;;;;;5074056;28;20033;-75
2021/05/09 08:54:08;;;;;;;3.47;1.50;;;17.80;38.70;;;;;;5074628;28;20433;-76
2021/05/09 08:56:37;;;;;;;4.10;1.67;;;18.00;39.00;;;;;;5074402;28;20112;-76
2021/05/09 08:59:03;;;;;;;3.65;2.15;;;18.10;38.90;;;;;;5074428;28;20066;-76
2021/05/09 09:01:30;;;;;;;2.70;1.80;;;18.30;38.10;;;;;;5072694;28;20032;-76
2021/05/09 09:03:56;;;;;;;1.65;1.55;;;18.20;38.00;;;;;;5072259;28;20024;-76
2021/05/09 09:06:44;;;;;;;2.63;2.00;;;18.20;37.80;;;;;;5072172;28;20534;-76
2021/05/09 09:09:23;;;;;;;3.70;1.90;;;18.30;38.30;;;;;;5070366;28;20505;-76
2021/05/09 09:11:56;;;;;;;2.50;1.65;;;18.10;36.90;;;;;;5072051;28;20385;-76
2021/05/09 09:14:27;;;;;;;3.17;1.80;;;18.10;37.50;;;;;;5070181;28;20037;-76
2021/05/09 09:17:16;;;;;;;2.13;1.50;;;18.40;38.40;;;;;;5072195;28;20032;-76
2021/05/09 09:20:06;;;;;;;1.98;1.50;;;18.50;38.20;;;;;;5072018;28;20043;-76
2021/05/09 09:22:53;;;;;;;2.08;1.55;;;18.50;37.00;;;;;;5071367;28;20108;-76
2021/05/09 09:25:20;;;;;;;1.98;1.75;;;18.50;37.60;;;;;;5073171;28;20462;-76
2021/05/09 09:27:48;;;;;;;3.25;1.63;;;18.50;36.70;;;;;;5071867;28;20040;-76
2021/05/09 09:30:16;;;;;;;1.60;1.27;;;18.70;37.90;;;;;;5073472;28;20090;-76
2021/05/09 09:33:02;;;;;;;1.70;1.60;;;18.80;37.80;;;;;;5067899;28;20031;-76
2021/05/09 09:35:29;;;;;;;2.30;1.33;;;18.80;37.10;;;;;;5071362;28;20021;-76
2021/05/09 09:37:55;;;;;;;2.60;1.98;;;18.70;36.50;;;;;;5072154;28;20482;-76
2021/05/09 09:40:21;;;;;;;1.65;1.55;;;18.70;36.50;;;;;;5072338;28;20027;-76
2021/05/09 09:42:48;;;;;;;2.13;1.50;;;18.70;36.30;;;;;;5071449;28;20386;-76
2021/05/09 09:45:18;;;;;;;2.30;1.45;;;18.90;37.90;;;;;;5071780;28;20032;-76
2021/05/09 09:47:53;;;;;;;1.88;1.67;;;19.10;37.70;;;;;;5071849;28;20036;-76
2021/05/09 09:50:46;;;;;;;1.83;1.52;;;19.40;37.50;;;;;;5072595;28;20024;-76
2021/05/09 09:53:33;;;;;;;2.40;1.30;;;19.30;35.40;;;;;;5070556;28;20050;-76
2021/05/09 09:56:00;;;;;;;4.13;1.65;;;19.30;35.20;;;;;;5071794;28;20421;-76
2021/05/09 09:58:38;;;;;;;3.85;1.77;;;19.50;36.60;;;;;;5070697;28;20024;-76
2021/05/09 10:01:04;;;;;;;2.55;1.48;;;19.50;36.70;;;;;;5072590;28;20151;-76
2021/05/09 10:03:30;;;;;;;2.40;1.85;;;19.50;36.10;;;;;;5065855;28;20119;-76
2021/05/09 10:05:58;;;;;;;2.78;1.50;;;19.50;36.10;;;;;;5061513;28;20032;-76
2021/05/09 10:08:24;;;;;;;3.05;1.65;;;19.40;35.20;;;;;;5059236;28;20036;-76
2021/05/09 10:10:51;;;;;;;1.73;1.63;;;19.50;35.60;;;;;;5061223;28;20368;-76
2021/05/09 10:13:18;;;;;;;1.50;1.40;;;19.60;35.40;;;;;;5054788;28;20025;-76
2021/05/09 10:15:44;;;;;;;1.45;1.35;;;19.70;36.30;;;;;;5050609;28;20017;-76
2021/05/09 10:18:15;;;;;;;5.25;1.70;;;19.70;35.60;;;;;;5055091;28;20031;-76
2021/05/09 10:20:41;;;;;;;2.78;1.63;;;19.90;35.60;;;;;;5053396;28;20091;-76
2021/05/09 10:23:07;;;;;;;4.25;1.83;;;19.90;34.50;;;;;;5054155;28;20032;-75
2021/05/09 10:25:45;;;;;;;1.75;1.08;;;20.10;35.30;;;;;;5047213;28;20029;-76
2021/05/09 10:28:12;;;;;;;2.58;1.30;;;20.20;34.00;;;;;;5061556;28;20563;-76
2021/05/09 10:30:55;;;;;;;1.23;1.05;;;20.10;34.40;;;;;;5052684;28;20474;-76
2021/05/09 10:33:39;;;;;;;1.48;1.10;;;20.00;34.40;;;;;;5054256;28;20021;-76
2021/05/09 10:36:27;;;;;;;1.50;1.33;;;20.20;35.00;;;;;;5066010;28;20097;-76
2021/05/09 10:39:06;;;;;;;1.27;1.15;;;20.30;35.50;;;;;;5059907;28;20041;-76
2021/05/09 10:41:32;;;;;;;2.15;1.23;;;20.60;36.40;;;;;;5059452;28;20025;-76
2021/05/09 10:43:58;;;;;;;3.00;1.65;;;20.60;35.00;;;;;;5059486;28;20059;-76
2021/05/09 10:46:24;;;;;;;3.55;1.27;;;20.50;32.50;;;;;;5051656;28;20099;-76
2021/05/09 10:49:11;;;;;;;1.52;1.20;;;20.50;33.40;;;;;;5049960;28;20025;-76
2021/05/09 10:51:37;;;;;;;3.63;1.52;;;20.50;34.00;;;;;;5067064;28;20020;-76
2021/05/09 10:54:24;;;;;;;1.95;1.10;;;20.60;34.60;;;;;;5063941;28;20040;-76
2021/05/09 10:56:51;;;;;;;1.23;0.90;;;20.70;34.60;;;;;;5063580;28;20059;-76
2021/05/09 10:59:17;;;;;;;1.30;1.00;;;20.80;34.50;;;;;;5067876;28;20028;-76
2021/05/09 11:01:43;;;;;;;1.10;1.00;;;20.80;33.50;;;;;;5069638;28;20025;-76
2021/05/09 11:04:13;;;;;;;2.05;1.30;;;21.00;34.70;;;;;;5070044;28;20016;-76
2021/05/09 11:06:49;;;;;;;2.05;1.05;;;21.10;34.00;;;;;;5068290;28;20043;-76
2021/05/09 11:09:29;;;;;;;1.35;0.90;;;21.00;33.60;;;;;;5069465;28;20114;-76
2021/05/09 11:11:59;;;;;;;1.30;0.95;;;21.00;34.40;;;;;;5069600;28;20032;-76
2021/05/09 11:14:25;;;;;;;2.10;1.23;;;20.80;33.30;;;;;;5062198;28;20143;-76
2021/05/09 11:17:02;;;;;;;2.42;1.42;;;20.90;34.50;;;;;;5066367;28;20055;-76
2021/05/09 11:19:39;;;;;;;1.25;1.10;;;20.90;34.60;;;;;;5068465;28;20096;-76
2021/05/09 11:22:05;;;;;;;2.05;1.38;;;21.00;34.80;;;;;;5060646;28;20017;-76
2021/05/09 11:24:33;;;;;;;1.75;0.80;;;21.00;34.70;;;;;;5058719;28;20390;-76
2021/05/09 11:27:10;;;;;;;1.35;1.20;;;21.00;34.70;;;;;;5059937;28;20033;-76
2021/05/09 11:29:39;;;;;;;1.85;0.93;;;21.10;34.70;;;;;;5059451;28;20035;-76
2021/05/09 11:32:06;;;;;;;2.38;1.35;;;21.20;35.40;;;;;;5059755;28;20378;-76
2021/05/09 11:34:32;;;;;;;1.85;0.82;;;21.40;34.60;;;;;;5061693;28;20367;-76
2021/05/09 11:36:58;;;;;;;1.42;0.65;;;21.50;35.30;;;;;;5060423;28;20028;-76
2021/05/09 11:39:30;;;;;;;1.63;1.52;;;21.30;34.00;;;;;;5060826;28;20443;-76
2021/05/09 11:41:56;;;;;;;3.00;1.10;;;21.20;32.60;;;;;;5059261;28;20491;-76
2021/05/09 11:44:41;;;;;;;2.38;1.40;;;21.30;33.50;;;;;;5061952;28;20024;-77
2021/05/09 11:47:09;;;;;;;0.60;0.60;;;21.20;34.10;;;;;;5072206;28;20029;-76
2021/05/09 11:49:36;;;;;;;4.07;1.27;;;21.20;33.30;;;;;;5072551;28;20024;-76
2021/05/09 11:52:06;;;;;;;1.30;0.80;;;21.40;33.90;;;;;;5066170;28;20017;-76
2021/05/09 11:54:37;;;;;;;2.05;0.70;;;21.50;34.30;;;;;;5056746;28;20064;-76
2021/05/09 11:57:04;;;;;;;1.17;1.08;;;21.60;33.60;;;;;;5053306;28;20096;-76
2021/05/09 11:59:34;;;;;;;0.70;0.70;;;21.70;35.00;;;;;;5054173;28;20021;-76
2021/05/09 12:02:02;;;;;;;1.52;1.00;;;21.90;35.50;;;;;;5054720;28;20538;-77
2021/05/09 12:04:29;;;;;;;1.08;0.90;;;22.00;35.90;;;;;;5053205;28;20486;-77
2021/05/09 12:07:00;;;;;;;0.90;0.77;;;22.20;36.00;;;;;;5053860;28;20033;-76
2021/05/09 12:09:27;;;;;;;1.20;0.98;;;21.90;34.50;;;;;;5053680;28;20071;-76
2021/05/09 12:11:53;;;;;;;1.45;0.82;;;21.60;34.10;;;;;;5060229;28;20028;-76
2021/05/09 12:14:19;;;;;;;1.02;0.90;;;21.50;34.50;;;;;;5051189;28;20055;-76
2021/05/09 12:16:46;;;;;;;2.42;1.00;;;21.70;34.40;;;;;;5049736;28;20386;-76
2021/05/09 12:19:12;;;;;;;2.13;0.60;;;21.60;34.30;;;;;;5049869;28;20021;-76
2021/05/09 12:21:39;;;;;;;0.70;0.70;;;21.70;34.80;;;;;;5062475;28;20031;-76
2021/05/09 12:24:06;;;;;;;0.85;0.80;;;21.70;34.80;;;;;;5067922;28;20016;-77
2021/05/09 12:26:33;;;;;;;2.75;0.90;;;21.70;34.60;;;;;;5069999;28;20405;-76
2021/05/09 12:29:18;;;;;;;0.80;0.80;;;21.80;35.70;;;;;;5066622;28;20077;-77
2021/05/09 12:31:43;;;;;;;0.80;0.68;;;21.90;35.40;;;;;;5055804;28;20066;-76
2021/05/09 12:34:10;;;;;;;1.27;0.60;;;22.00;35.10;;;;;;5055960;28;20481;-76
2021/05/09 12:36:38;;;;;;;0.70;0.60;;;22.10;35.60;;;;;;5061070;28;20501;-76
2021/05/09 12:39:18;;;;;;;2.58;0.80;;;22.00;35.00;;;;;;5060038;28;20115;-76
2021/05/09 12:41:54;;;;;;;1.10;1.00;;;22.10;35.40;;;;;;5062185;28;20540;-77
2021/05/09 12:44:23;;;;;;;2.08;0.95;;;22.10;35.80;;;;;;5065655;28;20020;-76
2021/05/09 12:46:49;;;;;;;1.27;1.17;;;22.30;36.20;;;;;;5068847;28;20033;-76